sensor_id;sensor_type;location;lat;lon;timestamp;temperature;humidity
65245;DHT22;51846;48.692;2.382;2023-08-07T00:00:41;15.87;73.03
65245;DHT22;51846;48.692;2.382;2023-08-07T00:03:06;15.88;73.13
65245;DHT22;51846;48.692;2.382;2023-08-07T00:05:31;15.81;73.51
65245;DHT22;51846;48.692;2.382;2023-08-07T00:07:57;15.85;73.16
65245;DHT22;51846;48.692;2.382;2023-08-07T00:10:22;15.74;73.28
65245;DHT22;51846;48.692;2.382;2023-08-07T00:12:48;15.80;73.39
65245;DHT22;51846;48.692;2.382;2023-08-07T00:15:13;15.78;73.22
65245;DHT22;51846;48.692;2.382;2023-08-07T00:17:39;15.78;73.44
65245;DHT22;51846;48.692;2.382;2023-08-07T00:20:05;15.78;73.16
65245;DHT22;51846;48.692;2.382;2023-08-07T00:22:30;15.77;73.19
65245;DHT22;51846;48.692;2.382;2023-08-07T00:24:56;15.75;73.31
65245;DHT22;51846;48.692;2.382;2023-08-07T00:27:22;15.67;73.66
65245;DHT22;51846;48.692;2.382;2023-08-07T00:29:47;15.68;73.80
65245;DHT22;51846;48.692;2.382;2023-08-07T00:32:12;15.67;73.56
65245;DHT22;51846;48.692;2.382;2023-08-07T00:34:38;15.63;73.63
65245;DHT22;51846;48.692;2.382;2023-08-07T00:37:04;15.60;74.02
65245;DHT22;51846;48.692;2.382;2023-08-07T00:39:29;15.63;74.19
65245;DHT22;51846;48.692;2.382;2023-08-07T00:41:55;15.64;73.82
65245;DHT22;51846;48.692;2.382;2023-08-07T00:44:20;15.60;73.99
65245;DHT22;51846;48.692;2.382;2023-08-07T00:46:46;15.58;74.08
65245;DHT22;51846;48.692;2.382;2023-08-07T00:49:12;15.53;74.30
65245;DHT22;51846;48.692;2.382;2023-08-07T00:51:38;15.54;74.29
65245;DHT22;51846;48.692;2.382;2023-08-07T00:54:05;15.46;74.64
65245;DHT22;51846;48.692;2.382;2023-08-07T00:56:31;15.47;74.73
65245;DHT22;51846;48.692;2.382;2023-08-07T00:58:58;15.44;74.78
65245;DHT22;51846;48.692;2.382;2023-08-07T01:01:24;15.44;74.81
65245;DHT22;51846;48.692;2.382;2023-08-07T01:03:50;15.37;75.31
65245;DHT22;51846;48.692;2.382;2023-08-07T01:06:15;15.33;75.35
65245;DHT22;51846;48.692;2.382;2023-08-07T01:08:41;15.30;75.26
65245;DHT22;51846;48.692;2.382;2023-08-07T01:11:29;15.24;75.84
65245;DHT22;51846;48.692;2.382;2023-08-07T01:14:08;15.22;75.85
65245;DHT22;51846;48.692;2.382;2023-08-07T01:17:13;15.19;75.68
65245;DHT22;51846;48.692;2.382;2023-08-07T01:19:40;15.13;76.17
65245;DHT22;51846;48.692;2.382;2023-08-07T01:22:14;15.16;76.32
65245;DHT22;51846;48.692;2.382;2023-08-07T01:24:41;15.14;76.13
65245;DHT22;51846;48.692;2.382;2023-08-07T01:27:10;15.14;76.25
65245;DHT22;51846;48.692;2.382;2023-08-07T01:35:17;15.10;76.57
65245;DHT22;51846;48.692;2.382;2023-08-07T01:37:46;15.07;76.78
65245;DHT22;51846;48.692;2.382;2023-08-07T01:40:13;15.06;76.77
65245;DHT22;51846;48.692;2.382;2023-08-07T01:42:39;15.06;77.11
65245;DHT22;51846;48.692;2.382;2023-08-07T01:45:05;15.04;77.00
65245;DHT22;51846;48.692;2.382;2023-08-07T01:47:30;15.03;77.19
65245;DHT22;51846;48.692;2.382;2023-08-07T01:49:56;15.06;77.23
65245;DHT22;51846;48.692;2.382;2023-08-07T01:52:21;15.04;77.28
65245;DHT22;51846;48.692;2.382;2023-08-07T01:54:47;14.98;77.53
65245;DHT22;51846;48.692;2.382;2023-08-07T01:57:13;14.95;77.40
65245;DHT22;51846;48.692;2.382;2023-08-07T01:59:38;14.98;77.67
65245;DHT22;51846;48.692;2.382;2023-08-07T02:02:04;14.96;77.71
65245;DHT22;51846;48.692;2.382;2023-08-07T02:04:29;14.96;77.74
65245;DHT22;51846;48.692;2.382;2023-08-07T02:06:55;14.95;77.84
65245;DHT22;51846;48.692;2.382;2023-08-07T02:09:20;14.93;77.97
65245;DHT22;51846;48.692;2.382;2023-08-07T02:11:46;14.96;77.71
65245;DHT22;51846;48.692;2.382;2023-08-07T02:14:11;14.99;77.75
65245;DHT22;51846;48.692;2.382;2023-08-07T02:16:36;14.98;77.84
65245;DHT22;51846;48.692;2.382;2023-08-07T02:19:02;14.89;78.07
65245;DHT22;51846;48.692;2.382;2023-08-07T02:21:27;14.89;78.05
65245;DHT22;51846;48.692;2.382;2023-08-07T02:23:52;14.86;78.07
65245;DHT22;51846;48.692;2.382;2023-08-07T02:26:18;14.88;78.19
65245;DHT22;51846;48.692;2.382;2023-08-07T02:28:43;14.82;78.26
65245;DHT22;51846;48.692;2.382;2023-08-07T02:31:08;14.83;78.45
65245;DHT22;51846;48.692;2.382;2023-08-07T02:33:34;14.82;78.47
65245;DHT22;51846;48.692;2.382;2023-08-07T02:35:59;14.80;78.34
65245;DHT22;51846;48.692;2.382;2023-08-07T02:38:25;14.79;78.42
65245;DHT22;51846;48.692;2.382;2023-08-07T02:40:50;14.78;78.45
65245;DHT22;51846;48.692;2.382;2023-08-07T02:43:16;14.75;78.63
65245;DHT22;51846;48.692;2.382;2023-08-07T02:45:41;14.78;78.63
65245;DHT22;51846;48.692;2.382;2023-08-07T02:48:06;14.75;78.65
65245;DHT22;51846;48.692;2.382;2023-08-07T02:50:32;14.72;78.88
65245;DHT22;51846;48.692;2.382;2023-08-07T02:53:01;14.66;78.92
65245;DHT22;51846;48.692;2.382;2023-08-07T02:55:27;14.66;79.02
65245;DHT22;51846;48.692;2.382;2023-08-07T02:57:52;14.61;79.46
65245;DHT22;51846;48.692;2.382;2023-08-07T03:00:18;14.61;79.32
65245;DHT22;51846;48.692;2.382;2023-08-07T03:02:43;14.58;79.48
65245;DHT22;51846;48.692;2.382;2023-08-07T03:05:08;14.56;79.49
65245;DHT22;51846;48.692;2.382;2023-08-07T03:07:34;14.52;79.76
65245;DHT22;51846;48.692;2.382;2023-08-07T03:10:00;14.52;79.69
65245;DHT22;51846;48.692;2.382;2023-08-07T03:12:25;14.48;79.96
65245;DHT22;51846;48.692;2.382;2023-08-07T03:14:50;14.52;79.83
65245;DHT22;51846;48.692;2.382;2023-08-07T03:17:16;14.48;79.79
65245;DHT22;51846;48.692;2.382;2023-08-07T03:19:42;14.46;79.93
65245;DHT22;51846;48.692;2.382;2023-08-07T03:22:08;14.51;80.05
65245;DHT22;51846;48.692;2.382;2023-08-07T03:24:33;14.49;80.25
65245;DHT22;51846;48.692;2.382;2023-08-07T03:26:59;14.44;80.48
65245;DHT22;51846;48.692;2.382;2023-08-07T03:29:27;14.44;80.41
65245;DHT22;51846;48.692;2.382;2023-08-07T03:31:52;14.42;80.50
65245;DHT22;51846;48.692;2.382;2023-08-07T03:34:17;14.41;80.58
65245;DHT22;51846;48.692;2.382;2023-08-07T03:36:45;14.37;80.76
65245;DHT22;51846;48.692;2.382;2023-08-07T03:39:10;14.35;80.77
65245;DHT22;51846;48.692;2.382;2023-08-07T03:41:37;14.29;80.94
65245;DHT22;51846;48.692;2.382;2023-08-07T03:44:02;14.31;81.24
65245;DHT22;51846;48.692;2.382;2023-08-07T03:46:27;14.32;81.14
65245;DHT22;51846;48.692;2.382;2023-08-07T03:48:53;14.29;81.07
65245;DHT22;51846;48.692;2.382;2023-08-07T03:51:18;14.31;81.22
65245;DHT22;51846;48.692;2.382;2023-08-07T03:53:44;14.25;81.34
65245;DHT22;51846;48.692;2.382;2023-08-07T03:56:09;14.22;81.48
65245;DHT22;51846;48.692;2.382;2023-08-07T03:58:34;14.27;81.72
65245;DHT22;51846;48.692;2.382;2023-08-07T04:01:00;14.24;81.55
65245;DHT22;51846;48.692;2.382;2023-08-07T04:03:25;14.21;81.90
65245;DHT22;51846;48.692;2.382;2023-08-07T04:05:54;14.18;81.78
65245;DHT22;51846;48.692;2.382;2023-08-07T04:08:23;14.17;81.92
65245;DHT22;51846;48.692;2.382;2023-08-07T04:10:59;14.07;82.15
65245;DHT22;51846;48.692;2.382;2023-08-07T04:13:26;14.11;82.32
65245;DHT22;51846;48.692;2.382;2023-08-07T04:15:51;14.14;82.20
65245;DHT22;51846;48.692;2.382;2023-08-07T04:18:16;14.08;82.46
65245;DHT22;51846;48.692;2.382;2023-08-07T04:20:42;14.10;82.30
65245;DHT22;51846;48.692;2.382;2023-08-07T04:23:07;14.11;82.54
65245;DHT22;51846;48.692;2.382;2023-08-07T04:25:34;14.08;82.30
65245;DHT22;51846;48.692;2.382;2023-08-07T04:27:59;14.04;82.44
65245;DHT22;51846;48.692;2.382;2023-08-07T04:30:24;14.01;82.72
65245;DHT22;51846;48.692;2.382;2023-08-07T04:32:50;13.91;82.90
65245;DHT22;51846;48.692;2.382;2023-08-07T04:35:15;13.93;83.12
65245;DHT22;51846;48.692;2.382;2023-08-07T04:37:40;13.91;83.24
65245;DHT22;51846;48.692;2.382;2023-08-07T04:40:06;13.85;83.51
65245;DHT22;51846;48.692;2.382;2023-08-07T04:42:33;13.80;83.72
65245;DHT22;51846;48.692;2.382;2023-08-07T04:44:59;13.83;83.84
65245;DHT22;51846;48.692;2.382;2023-08-07T04:47:24;13.85;83.88
65245;DHT22;51846;48.692;2.382;2023-08-07T04:49:49;13.80;84.00
65245;DHT22;51846;48.692;2.382;2023-08-07T04:52:15;13.87;84.13
65245;DHT22;51846;48.692;2.382;2023-08-07T04:54:40;13.91;84.09
65245;DHT22;51846;48.692;2.382;2023-08-07T04:57:06;13.93;83.98
65245;DHT22;51846;48.692;2.382;2023-08-07T04:59:31;13.94;83.94
65245;DHT22;51846;48.692;2.382;2023-08-07T05:01:57;13.93;84.16
65245;DHT22;51846;48.692;2.382;2023-08-07T05:04:23;13.91;84.37
65245;DHT22;51846;48.692;2.382;2023-08-07T05:06:48;13.77;84.86
65245;DHT22;51846;48.692;2.382;2023-08-07T05:09:14;13.66;84.94
65245;DHT22;51846;48.692;2.382;2023-08-07T05:11:39;13.47;85.44
65245;DHT22;51846;48.692;2.382;2023-08-07T05:14:04;13.36;85.95
65245;DHT22;51846;48.692;2.382;2023-08-07T05:16:30;13.26;86.20
65245;DHT22;51846;48.692;2.382;2023-08-07T05:18:55;13.18;86.63
65245;DHT22;51846;48.692;2.382;2023-08-07T05:21:20;13.13;86.79
65245;DHT22;51846;48.692;2.382;2023-08-07T05:23:45;13.15;86.95
65245;DHT22;51846;48.692;2.382;2023-08-07T05:26:12;13.24;86.95
65245;DHT22;51846;48.692;2.382;2023-08-07T05:28:38;13.24;86.95
65245;DHT22;51846;48.692;2.382;2023-08-07T05:31:03;13.26;86.93
65245;DHT22;51846;48.692;2.382;2023-08-07T05:33:28;13.44;86.56
65245;DHT22;51846;48.692;2.382;2023-08-07T05:35:54;13.66;85.93
65245;DHT22;51846;48.692;2.382;2023-08-07T05:38:20;13.73;85.62
65245;DHT22;51846;48.692;2.382;2023-08-07T05:40:45;13.80;85.63
65245;DHT22;51846;48.692;2.382;2023-08-07T05:43:11;13.97;85.25
65245;DHT22;51846;48.692;2.382;2023-08-07T05:45:37;14.03;85.16
65245;DHT22;51846;48.692;2.382;2023-08-07T05:48:03;14.08;85.28
65245;DHT22;51846;48.692;2.382;2023-08-07T05:50:28;14.18;85.53
65245;DHT22;51846;48.692;2.382;2023-08-07T05:52:54;14.25;85.78
65245;DHT22;51846;48.692;2.382;2023-08-07T05:55:19;14.29;85.94
65245;DHT22;51846;48.692;2.382;2023-08-07T05:57:44;14.34;85.94
65245;DHT22;51846;48.692;2.382;2023-08-07T06:00:10;14.32;85.95
65245;DHT22;51846;48.692;2.382;2023-08-07T06:02:42;14.35;86.05
65245;DHT22;51846;48.692;2.382;2023-08-07T06:05:10;14.39;85.81
65245;DHT22;51846;48.692;2.382;2023-08-07T06:07:38;14.45;86.03
65245;DHT22;51846;48.692;2.382;2023-08-07T06:10:04;14.44;85.90
65245;DHT22;51846;48.692;2.382;2023-08-07T06:12:29;14.45;86.02
65245;DHT22;51846;48.692;2.382;2023-08-07T06:14:55;14.49;86.04
65245;DHT22;51846;48.692;2.382;2023-08-07T06:17:20;14.59;85.78
65245;DHT22;51846;48.692;2.382;2023-08-07T06:19:45;14.52;86.12
65245;DHT22;51846;48.692;2.382;2023-08-07T06:22:11;14.61;85.90
65245;DHT22;51846;48.692;2.382;2023-08-07T06:24:36;14.64;85.92
65245;DHT22;51846;48.692;2.382;2023-08-07T06:27:02;14.71;85.65
65245;DHT22;51846;48.692;2.382;2023-08-07T06:29:27;14.79;85.45
65245;DHT22;51846;48.692;2.382;2023-08-07T06:31:53;14.79;85.37
65245;DHT22;51846;48.692;2.382;2023-08-07T06:34:18;14.93;84.75
65245;DHT22;51846;48.692;2.382;2023-08-07T06:36:44;14.95;84.70
65245;DHT22;51846;48.692;2.382;2023-08-07T06:39:09;14.93;84.89
65245;DHT22;51846;48.692;2.382;2023-08-07T06:41:35;14.99;85.00
65245;DHT22;51846;48.692;2.382;2023-08-07T06:44:01;15.03;84.78
65245;DHT22;51846;48.692;2.382;2023-08-07T06:46:26;15.07;84.93
65245;DHT22;51846;48.692;2.382;2023-08-07T06:48:53;15.18;85.05
65245;DHT22;51846;48.692;2.382;2023-08-07T06:51:18;15.26;84.81
65245;DHT22;51846;48.692;2.382;2023-08-07T06:53:43;15.29;84.24
65245;DHT22;51846;48.692;2.382;2023-08-07T06:56:09;15.27;84.62
65245;DHT22;51846;48.692;2.382;2023-08-07T06:58:34;15.34;84.30
65245;DHT22;51846;48.692;2.382;2023-08-07T07:01:00;15.42;84.12
65245;DHT22;51846;48.692;2.382;2023-08-07T07:03:25;15.47;83.85
65245;DHT22;51846;48.692;2.382;2023-08-07T07:05:50;15.47;83.41
65245;DHT22;51846;48.692;2.382;2023-08-07T07:08:16;15.53;83.48
65245;DHT22;51846;48.692;2.382;2023-08-07T07:10:41;15.55;83.55
65245;DHT22;51846;48.692;2.382;2023-08-07T07:13:06;15.60;83.18
65245;DHT22;51846;48.692;2.382;2023-08-07T07:15:34;15.63;82.67
65245;DHT22;51846;48.692;2.382;2023-08-07T07:18:00;15.61;82.52
65245;DHT22;51846;48.692;2.382;2023-08-07T07:20:26;15.63;82.95
65245;DHT22;51846;48.692;2.382;2023-08-07T07:22:52;15.64;82.97
65245;DHT22;51846;48.692;2.382;2023-08-07T07:25:17;15.70;83.07
65245;DHT22;51846;48.692;2.382;2023-08-07T07:27:43;15.75;82.99
65245;DHT22;51846;48.692;2.382;2023-08-07T07:30:09;15.83;82.60
65245;DHT22;51846;48.692;2.382;2023-08-07T07:32:34;15.87;82.70
65245;DHT22;51846;48.692;2.382;2023-08-07T07:34:59;15.93;82.26
65245;DHT22;51846;48.692;2.382;2023-08-07T07:37:25;15.94;82.58
65245;DHT22;51846;48.692;2.382;2023-08-07T07:39:50;15.95;81.60
65245;DHT22;51846;48.692;2.382;2023-08-07T07:42:15;15.98;81.31
65245;DHT22;51846;48.692;2.382;2023-08-07T07:44:41;16.04;81.77
65245;DHT22;51846;48.692;2.382;2023-08-07T07:47:07;16.05;81.59
65245;DHT22;51846;48.692;2.382;2023-08-07T07:49:33;16.01;81.82
65245;DHT22;51846;48.692;2.382;2023-08-07T07:51:58;16.12;81.80
65245;DHT22;51846;48.692;2.382;2023-08-07T07:54:23;16.11;81.98
65245;DHT22;51846;48.692;2.382;2023-08-07T07:56:49;16.24;81.56
65245;DHT22;51846;48.692;2.382;2023-08-07T07:59:14;16.35;81.43
65245;DHT22;51846;48.692;2.382;2023-08-07T08:01:40;16.29;81.02
65245;DHT22;51846;48.692;2.382;2023-08-07T08:04:06;16.38;80.71
65245;DHT22;51846;48.692;2.382;2023-08-07T08:06:31;16.39;80.82
65245;DHT22;51846;48.692;2.382;2023-08-07T08:08:57;16.47;80.77
65245;DHT22;51846;48.692;2.382;2023-08-07T08:11:22;16.51;80.33
65245;DHT22;51846;48.692;2.382;2023-08-07T08:13:47;16.49;80.11
65245;DHT22;51846;48.692;2.382;2023-08-07T08:16:13;16.58;80.16
65245;DHT22;51846;48.692;2.382;2023-08-07T08:18:38;16.58;79.94
65245;DHT22;51846;48.692;2.382;2023-08-07T08:21:04;16.56;80.02
65245;DHT22;51846;48.692;2.382;2023-08-07T08:23:29;16.59;80.01
65245;DHT22;51846;48.692;2.382;2023-08-07T08:25:54;16.60;79.94
65245;DHT22;51846;48.692;2.382;2023-08-07T08:28:20;16.65;79.88
65245;DHT22;51846;48.692;2.382;2023-08-07T08:30:45;16.72;79.27
65245;DHT22;51846;48.692;2.382;2023-08-07T08:33:11;16.77;79.51
65245;DHT22;51846;48.692;2.382;2023-08-07T08:35:39;16.86;78.48
65245;DHT22;51846;48.692;2.382;2023-08-07T08:38:05;16.86;78.70
65245;DHT22;51846;48.692;2.382;2023-08-07T08:40:30;16.96;78.49
65245;DHT22;51846;48.692;2.382;2023-08-07T08:42:56;17.04;78.14
65245;DHT22;51846;48.692;2.382;2023-08-07T08:45:26;17.13;77.08
65245;DHT22;51846;48.692;2.382;2023-08-07T08:47:54;17.24;76.94
65245;DHT22;51846;48.692;2.382;2023-08-07T08:50:21;17.20;77.81
65245;DHT22;51846;48.692;2.382;2023-08-07T08:52:47;17.19;78.08
65245;DHT22;51846;48.692;2.382;2023-08-07T08:55:13;17.27;76.33
65245;DHT22;51846;48.692;2.382;2023-08-07T08:57:39;17.33;76.94
65245;DHT22;51846;48.692;2.382;2023-08-07T09:00:08;17.31;76.19
65245;DHT22;51846;48.692;2.382;2023-08-07T09:02:46;17.37;76.16
65245;DHT22;51846;48.692;2.382;2023-08-07T09:05:12;17.43;75.45
65245;DHT22;51846;48.692;2.382;2023-08-07T09:07:37;17.50;75.28
65245;DHT22;51846;48.692;2.382;2023-08-07T09:10:03;17.58;76.77
65245;DHT22;51846;48.692;2.382;2023-08-07T09:12:31;17.70;73.77
65245;DHT22;51846;48.692;2.382;2023-08-07T09:14:58;17.71;74.63
65245;DHT22;51846;48.692;2.382;2023-08-07T09:17:24;17.75;73.88
65245;DHT22;51846;48.692;2.382;2023-08-07T09:19:52;17.85;74.38
65245;DHT22;51846;48.692;2.382;2023-08-07T09:22:18;17.92;74.65
65245;DHT22;51846;48.692;2.382;2023-08-07T09:24:44;17.97;74.55
65245;DHT22;51846;48.692;2.382;2023-08-07T09:27:09;18.09;72.88
65245;DHT22;51846;48.692;2.382;2023-08-07T09:29:35;18.18;74.35
65245;DHT22;51846;48.692;2.382;2023-08-07T09:32:13;18.26;71.79
65245;DHT22;51846;48.692;2.382;2023-08-07T09:34:42;18.33;70.97
65245;DHT22;51846;48.692;2.382;2023-08-07T09:37:10;18.38;70.10
65245;DHT22;51846;48.692;2.382;2023-08-07T09:39:36;18.42;69.27
65245;DHT22;51846;48.692;2.382;2023-08-07T09:42:03;18.46;69.86
65245;DHT22;51846;48.692;2.382;2023-08-07T09:44:36;18.50;69.79
65245;DHT22;51846;48.692;2.382;2023-08-07T09:47:11;18.52;70.04
65245;DHT22;51846;48.692;2.382;2023-08-07T09:49:37;18.66;69.83
65245;DHT22;51846;48.692;2.382;2023-08-07T09:52:05;18.69;68.93
65245;DHT22;51846;48.692;2.382;2023-08-07T09:54:33;18.79;67.17
65245;DHT22;51846;48.692;2.382;2023-08-07T09:56:59;18.84;67.44
65245;DHT22;51846;48.692;2.382;2023-08-07T09:59:24;18.84;67.05
65245;DHT22;51846;48.692;2.382;2023-08-07T10:01:51;18.87;66.76
65245;DHT22;51846;48.692;2.382;2023-08-07T10:04:17;18.99;67.71
65245;DHT22;51846;48.692;2.382;2023-08-07T10:06:43;19.14;66.76
65245;DHT22;51846;48.692;2.382;2023-08-07T10:09:09;19.18;66.83
65245;DHT22;51846;48.692;2.382;2023-08-07T10:11:34;19.14;66.13
65245;DHT22;51846;48.692;2.382;2023-08-07T10:14:00;19.13;66.65
65245;DHT22;51846;48.692;2.382;2023-08-07T10:16:26;19.18;65.55
65245;DHT22;51846;48.692;2.382;2023-08-07T10:18:53;19.18;65.24
65245;DHT22;51846;48.692;2.382;2023-08-07T10:21:19;19.26;65.40
65245;DHT22;51846;48.692;2.382;2023-08-07T10:23:45;19.41;64.78
65245;DHT22;51846;48.692;2.382;2023-08-07T10:26:11;19.55;63.85
65245;DHT22;51846;48.692;2.382;2023-08-07T10:28:39;19.55;64.05
65245;DHT22;51846;48.692;2.382;2023-08-07T10:31:06;19.48;63.58
65245;DHT22;51846;48.692;2.382;2023-08-07T10:33:33;19.48;64.53
65245;DHT22;51846;48.692;2.382;2023-08-07T10:35:59;19.50;64.49
65245;DHT22;51846;48.692;2.382;2023-08-07T10:38:25;19.61;64.99
65245;DHT22;51846;48.692;2.382;2023-08-07T10:41:04;19.77;62.43
65245;DHT22;51846;48.692;2.382;2023-08-07T10:43:30;19.82;61.18
65245;DHT22;51846;48.692;2.382;2023-08-07T10:46:03;19.83;62.44
65245;DHT22;51846;48.692;2.382;2023-08-07T10:48:29;19.98;62.61
65245;DHT22;51846;48.692;2.382;2023-08-07T10:53:35;20.12;59.32
65245;DHT22;51846;48.692;2.382;2023-08-07T10:56:05;20.15;58.97
65245;DHT22;51846;48.692;2.382;2023-08-07T10:58:37;20.13;58.32
65245;DHT22;51846;48.692;2.382;2023-08-07T11:06:21;20.46;57.50
65245;DHT22;51846;48.692;2.382;2023-08-07T11:08:48;20.52;58.38
65245;DHT22;51846;48.692;2.382;2023-08-07T11:11:14;20.60;60.85
65245;DHT22;51846;48.692;2.382;2023-08-07T11:13:39;20.64;59.21
65245;DHT22;51846;48.692;2.382;2023-08-07T11:16:05;20.84;58.39
65245;DHT22;51846;48.692;2.382;2023-08-07T11:18:31;21.03;57.16
65245;DHT22;51846;48.692;2.382;2023-08-07T11:20:57;21.12;57.18
65245;DHT22;51846;48.692;2.382;2023-08-07T11:23:24;21.32;55.73
65245;DHT22;51846;48.692;2.382;2023-08-07T11:25:49;21.42;54.89
65245;DHT22;51846;48.692;2.382;2023-08-07T11:28:18;21.45;56.18
65245;DHT22;51846;48.692;2.382;2023-08-07T11:30:44;21.52;54.48
65245;DHT22;51846;48.692;2.382;2023-08-07T11:33:10;21.48;55.25
65245;DHT22;51846;48.692;2.382;2023-08-07T11:35:41;21.38;54.88
65245;DHT22;51846;48.692;2.382;2023-08-07T11:38:06;21.28;55.81
65245;DHT22;51846;48.692;2.382;2023-08-07T11:40:32;21.27;54.77
65245;DHT22;51846;48.692;2.382;2023-08-07T11:42:57;21.14;55.19
65245;DHT22;51846;48.692;2.382;2023-08-07T11:45:22;21.11;54.54
65245;DHT22;51846;48.692;2.382;2023-08-07T11:47:48;21.07;55.70
65245;DHT22;51846;48.692;2.382;2023-08-07T11:50:14;21.00;55.62
65245;DHT22;51846;48.692;2.382;2023-08-07T11:52:40;20.94;55.88
65245;DHT22;51846;48.692;2.382;2023-08-07T11:55:06;20.93;55.31
65245;DHT22;51846;48.692;2.382;2023-08-07T11:57:34;20.96;55.80
65245;DHT22;51846;48.692;2.382;2023-08-07T11:59:59;20.97;56.06
65245;DHT22;51846;48.692;2.382;2023-08-07T12:02:25;21.07;55.34
65245;DHT22;51846;48.692;2.382;2023-08-07T12:04:50;21.03;55.98
65245;DHT22;51846;48.692;2.382;2023-08-07T12:07:18;21.08;55.37
65245;DHT22;51846;48.692;2.382;2023-08-07T12:09:45;20.96;55.99
65245;DHT22;51846;48.692;2.382;2023-08-07T12:12:12;20.96;56.60
65245;DHT22;51846;48.692;2.382;2023-08-07T12:14:38;21.01;55.63
65245;DHT22;51846;48.692;2.382;2023-08-07T12:17:09;20.91;55.14
65245;DHT22;51846;48.692;2.382;2023-08-07T12:19:38;20.87;55.60
65245;DHT22;51846;48.692;2.382;2023-08-07T12:22:06;20.81;55.11
65245;DHT22;51846;48.692;2.382;2023-08-07T12:24:35;20.77;56.47
65245;DHT22;51846;48.692;2.382;2023-08-07T12:27:00;20.76;55.68
65245;DHT22;51846;48.692;2.382;2023-08-07T12:29:26;20.64;55.66
65245;DHT22;51846;48.692;2.382;2023-08-07T12:31:54;20.63;55.91
65245;DHT22;51846;48.692;2.382;2023-08-07T12:34:20;20.64;56.23
65245;DHT22;51846;48.692;2.382;2023-08-07T12:36:45;20.57;57.02
65245;DHT22;51846;48.692;2.382;2023-08-07T12:39:12;20.50;57.63
65245;DHT22;51846;48.692;2.382;2023-08-07T12:41:37;20.49;57.55
65245;DHT22;51846;48.692;2.382;2023-08-07T12:44:03;20.52;57.63
65245;DHT22;51846;48.692;2.382;2023-08-07T12:46:28;20.53;57.89
65245;DHT22;51846;48.692;2.382;2023-08-07T12:48:53;20.46;58.45
65245;DHT22;51846;48.692;2.382;2023-08-07T12:51:19;20.49;57.93
65245;DHT22;51846;48.692;2.382;2023-08-07T12:53:44;20.56;57.78
65245;DHT22;51846;48.692;2.382;2023-08-07T12:56:10;20.64;57.68
65245;DHT22;51846;48.692;2.382;2023-08-07T12:58:35;20.77;57.48
65245;DHT22;51846;48.692;2.382;2023-08-07T13:01:01;20.86;57.65
65245;DHT22;51846;48.692;2.382;2023-08-07T13:03:26;21.04;57.43
65245;DHT22;51846;48.692;2.382;2023-08-07T13:05:51;21.08;55.63
65245;DHT22;51846;48.692;2.382;2023-08-07T13:08:17;21.17;56.27
65245;DHT22;51846;48.692;2.382;2023-08-07T13:10:42;21.27;55.10
65245;DHT22;51846;48.692;2.382;2023-08-07T13:13:07;21.42;54.30
65245;DHT22;51846;48.692;2.382;2023-08-07T13:15:33;21.57;53.04
65245;DHT22;51846;48.692;2.382;2023-08-07T13:17:58;21.62;52.55
65245;DHT22;51846;48.692;2.382;2023-08-07T13:20:25;21.69;53.02
65245;DHT22;51846;48.692;2.382;2023-08-07T13:22:51;21.74;51.16
65245;DHT22;51846;48.692;2.382;2023-08-07T13:25:16;21.86;53.96
65245;DHT22;51846;48.692;2.382;2023-08-07T13:27:42;21.89;52.68
65245;DHT22;51846;48.692;2.382;2023-08-07T13:30:08;21.99;52.66
65245;DHT22;51846;48.692;2.382;2023-08-07T13:32:34;21.96;52.76
65245;DHT22;51846;48.692;2.382;2023-08-07T13:35:00;21.91;52.37
65245;DHT22;51846;48.692;2.382;2023-08-07T13:37:25;21.85;52.36
65245;DHT22;51846;48.692;2.382;2023-08-07T13:39:51;21.88;52.97
65245;DHT22;51846;48.692;2.382;2023-08-07T13:42:18;21.95;52.60
65245;DHT22;51846;48.692;2.382;2023-08-07T13:44:44;22.06;52.93
65245;DHT22;51846;48.692;2.382;2023-08-07T13:47:09;22.28;50.52
65245;DHT22;51846;48.692;2.382;2023-08-07T13:49:36;22.36;50.15
65245;DHT22;51846;48.692;2.382;2023-08-07T13:52:01;22.47;49.90
65245;DHT22;51846;48.692;2.382;2023-08-07T13:54:26;22.26;49.94
65245;DHT22;51846;48.692;2.382;2023-08-07T13:56:52;22.36;49.57
65245;DHT22;51846;48.692;2.382;2023-08-07T13:59:17;22.36;49.92
65245;DHT22;51846;48.692;2.382;2023-08-07T14:01:43;22.29;49.74
65245;DHT22;51846;48.692;2.382;2023-08-07T14:04:08;22.22;51.49
65245;DHT22;51846;48.692;2.382;2023-08-07T14:06:34;22.23;49.86
65245;DHT22;51846;48.692;2.382;2023-08-07T14:09:02;22.26;49.90
65245;DHT22;51846;48.692;2.382;2023-08-07T14:11:28;22.35;50.13
65245;DHT22;51846;48.692;2.382;2023-08-07T14:13:59;22.44;50.75
65245;DHT22;51846;48.692;2.382;2023-08-07T14:16:28;22.39;51.06
65245;DHT22;51846;48.692;2.382;2023-08-07T14:18:53;22.39;50.59
65245;DHT22;51846;48.692;2.382;2023-08-07T14:21:19;22.49;50.11
65245;DHT22;51846;48.692;2.382;2023-08-07T14:23:45;22.44;50.74
65245;DHT22;51846;48.692;2.382;2023-08-07T14:26:11;22.64;49.51
65245;DHT22;51846;48.692;2.382;2023-08-07T14:28:37;22.76;48.93
65245;DHT22;51846;48.692;2.382;2023-08-07T14:31:06;22.66;49.72
65245;DHT22;51846;48.692;2.382;2023-08-07T14:33:31;22.63;50.07
65245;DHT22;51846;48.692;2.382;2023-08-07T14:35:57;22.80;49.11
65245;DHT22;51846;48.692;2.382;2023-08-07T14:38:22;22.86;47.67
65245;DHT22;51846;48.692;2.382;2023-08-07T14:40:47;22.84;47.99
65245;DHT22;51846;48.692;2.382;2023-08-07T14:43:13;22.81;48.79
65245;DHT22;51846;48.692;2.382;2023-08-07T14:45:38;22.76;47.08
65245;DHT22;51846;48.692;2.382;2023-08-07T14:48:03;22.71;47.72
65245;DHT22;51846;48.692;2.382;2023-08-07T14:50:29;22.74;47.91
65245;DHT22;51846;48.692;2.382;2023-08-07T14:52:54;22.78;47.52
65245;DHT22;51846;48.692;2.382;2023-08-07T14:55:20;22.80;46.90
65245;DHT22;51846;48.692;2.382;2023-08-07T14:57:45;22.71;47.35
65245;DHT22;51846;48.692;2.382;2023-08-07T15:00:11;22.74;47.18
65245;DHT22;51846;48.692;2.382;2023-08-07T15:02:37;22.74;47.54
65245;DHT22;51846;48.692;2.382;2023-08-07T15:05:02;22.64;49.37
65245;DHT22;51846;48.692;2.382;2023-08-07T15:07:28;22.63;48.83
65245;DHT22;51846;48.692;2.382;2023-08-07T15:09:53;22.70;47.71
65245;DHT22;51846;48.692;2.382;2023-08-07T15:12:18;22.68;47.93
65245;DHT22;51846;48.692;2.382;2023-08-07T15:14:44;22.70;47.36
65245;DHT22;51846;48.692;2.382;2023-08-07T15:17:10;22.63;47.15
65245;DHT22;51846;48.692;2.382;2023-08-07T15:19:35;22.60;46.85
65245;DHT22;51846;48.692;2.382;2023-08-07T15:22:01;22.57;47.32
65245;DHT22;51846;48.692;2.382;2023-08-07T15:24:26;22.52;47.32
65245;DHT22;51846;48.692;2.382;2023-08-07T15:26:51;22.44;47.68
65245;DHT22;51846;48.692;2.382;2023-08-07T15:29:17;22.40;48.48
65245;DHT22;51846;48.692;2.382;2023-08-07T15:31:42;22.40;47.17
65245;DHT22;51846;48.692;2.382;2023-08-07T15:34:08;22.37;47.02
65245;DHT22;51846;48.692;2.382;2023-08-07T15:36:33;22.39;47.90